createdAt,value
2023-01-12T00:02:07.444Z,100516.28
2023-01-12T00:04:35.735Z,100507.19
2023-01-12T00:07:04.347Z,100511.38
2023-01-12T00:09:32.187Z,100515.75
2023-01-12T00:12:00.406Z,100507.66
2023-01-12T00:14:29.440Z,100514.81
2023-01-12T00:16:58.703Z,100500.66
2023-01-12T00:19:26.546Z,100524.22
2023-01-12T00:22:02.372Z,100508.19
2023-01-12T00:24:33.878Z,100501.06
2023-01-12T00:27:04.188Z,100523.38
2023-01-12T00:29:32.419Z,100504.09
2023-01-12T00:32:01.880Z,100493.75
2023-01-12T00:34:30.337Z,100491.91
2023-01-12T00:37:00.589Z,100497.53
2023-01-12T00:39:28.610Z,100487.47
2023-01-12T00:42:14.282Z,100487.97
2023-01-12T00:44:59.588Z,100487.09
2023-01-12T00:47:28.903Z,100486.69
2023-01-12T00:49:56.797Z,100491.59
2023-01-12T00:52:30.905Z,100495.97
2023-01-12T00:54:59.911Z,100494.09
2023-01-12T00:57:28.282Z,100481.84
2023-01-12T00:59:58.250Z,100501.63
2023-01-12T01:02:29.883Z,100473.69
2023-01-12T01:04:57.849Z,100467.16
2023-01-12T01:07:25.899Z,100464.28
2023-01-12T01:09:53.966Z,100474.25
2023-01-12T01:12:22.165Z,100478.91
2023-01-12T01:14:50.021Z,100473.59
2023-01-12T01:17:18.147Z,100484.22
2023-01-12T01:19:48.304Z,100457.44
2023-01-12T01:22:16.193Z,100456.09
2023-01-12T01:24:44.056Z,100462.75
2023-01-12T01:27:12.191Z,100468.63
2023-01-12T01:29:40.146Z,100464.94
2023-01-12T01:32:08.646Z,100458.31
2023-01-12T01:34:37.185Z,100466.84
2023-01-12T01:37:06.432Z,100476.63
2023-01-12T01:39:34.372Z,100462.75
2023-01-12T01:42:02.172Z,100472.63
2023-01-12T01:44:53.981Z,100471.88
2023-01-12T01:47:29.479Z,100479.13
2023-01-12T01:49:59.781Z,100486.06
2023-01-12T01:52:33.650Z,100481.97
2023-01-12T01:55:07.680Z,100476.09
2023-01-12T01:57:41.565Z,100468.56
2023-01-12T02:00:11.806Z,100471.34
2023-01-12T02:02:40.522Z,100461.56
2023-01-12T02:05:09.721Z,100447.94
2023-01-12T02:07:39.824Z,100457.56
2023-01-12T02:10:08.173Z,100457.72
2023-01-12T02:12:53.665Z,100456.91
2023-01-12T02:15:42.999Z,100453.94
2023-01-12T02:18:20.135Z,100452.31
2023-01-12T02:20:55.516Z,100455.94
2023-01-12T02:23:50.441Z,100462.22
2023-01-12T02:26:45.153Z,100447.09
2023-01-12T02:30:00.479Z,100466.50
2023-01-12T02:32:35.767Z,100466.88
2023-01-12T02:35:14.343Z,100461.81
2023-01-12T02:37:47.111Z,100462.00
2023-01-12T02:40:24.750Z,100460.88
2023-01-12T02:43:02.738Z,100460.13
2023-01-12T02:45:42.911Z,100451.00
2023-01-12T02:48:17.749Z,100453.00
2023-01-12T02:50:52.553Z,100444.66
2023-01-12T02:53:25.511Z,100449.78
2023-01-12T02:55:54.614Z,100441.22
2023-01-12T02:58:25.780Z,100447.22
2023-01-12T03:00:57.602Z,100453.00
2023-01-12T03:03:27.659Z,100453.75
2023-01-12T03:05:56.908Z,100447.97
2023-01-12T03:08:28.760Z,100447.41
2023-01-12T03:11:06.558Z,100456.41
2023-01-12T03:13:38.553Z,100456.72
2023-01-12T03:16:10.123Z,100452.75
2023-01-12T03:18:44.354Z,100450.41
2023-01-12T03:21:18.153Z,100447.75
2023-01-12T03:23:48.759Z,100449.75
2023-01-12T03:26:23.247Z,100452.50
2023-01-12T03:28:56.268Z,100449.28
2023-01-12T03:31:25.652Z,100449.84
2023-01-12T03:33:57.056Z,100442.25
2023-01-12T03:36:36.495Z,100451.94
2023-01-12T03:39:14.089Z,100449.38
2023-01-12T03:41:53.237Z,100448.91
2023-01-12T03:44:28.523Z,100432.25
2023-01-12T03:47:01.004Z,100437.38
2023-01-12T03:49:36.302Z,100443.28
2023-01-12T03:52:08.249Z,100442.06
2023-01-12T03:54:39.700Z,100435.13
2023-01-12T03:57:10.010Z,100440.94
2023-01-12T03:59:38.102Z,100434.28
2023-01-12T04:02:06.171Z,100428.09
2023-01-12T04:04:35.644Z,100414.13
2023-01-12T04:07:03.649Z,100428.09
2023-01-12T04:09:31.786Z,100418.13
2023-01-12T04:12:11.556Z,100415.06
2023-01-12T04:14:40.164Z,100425.25
2023-01-12T04:17:09.036Z,100416.50
2023-01-12T04:19:38.826Z,100417.47
2023-01-12T04:22:24.691Z,100411.53
2023-01-12T04:24:52.939Z,100415.84
2023-01-12T04:27:20.908Z,100409.06
2023-01-12T04:29:49.130Z,100408.59
2023-01-12T04:32:17.231Z,100408.09
2023-01-12T04:34:47.201Z,100399.94
2023-01-12T04:37:15.369Z,100395.44
2023-01-12T04:39:43.397Z,100388.34
2023-01-12T04:42:31.413Z,100393.41
2023-01-12T04:44:59.301Z,100393.66
2023-01-12T04:47:27.149Z,100386.19
2023-01-12T04:49:56.853Z,100372.88
2023-01-12T04:52:24.858Z,100378.09
2023-01-12T04:54:52.751Z,100372.00
2023-01-12T04:57:20.738Z,100375.50
2023-01-12T04:59:48.781Z,100367.97
2023-01-12T05:02:16.855Z,100368.25
2023-01-12T05:04:44.815Z,100369.41
2023-01-12T05:07:14.162Z,100362.47
2023-01-12T05:09:59.563Z,100362.22
2023-01-12T05:12:27.450Z,100352.38
2023-01-12T05:14:55.328Z,100349.06
2023-01-12T05:17:23.305Z,100342.78
2023-01-12T05:19:51.156Z,100343.63
2023-01-12T05:22:20.456Z,100336.59
2023-01-12T05:24:48.438Z,100321.59
2023-01-12T05:27:18.359Z,100332.78
2023-01-12T05:29:46.187Z,100320.59
2023-01-12T05:32:14.148Z,100312.34
2023-01-12T05:34:42.607Z,100304.09
2023-01-12T05:37:10.476Z,100296.88
2023-01-12T05:39:39.869Z,100302.19
2023-01-12T05:42:25.104Z,100298.47
2023-01-12T05:44:53.072Z,100291.75
2023-01-12T05:47:20.961Z,100273.88
2023-01-12T05:49:48.804Z,100279.09
2023-01-12T05:52:16.726Z,100278.72
2023-01-12T05:54:45.977Z,100264.81
2023-01-12T05:57:13.841Z,100262.03
2023-01-12T05:59:41.727Z,100262.84
2023-01-12T06:02:12.166Z,100252.31
2023-01-12T06:04:40.226Z,100247.19
2023-01-12T06:07:08.208Z,100240.41
2023-01-12T06:09:36.488Z,100231.69
2023-01-12T06:12:23.740Z,100233.59
2023-01-12T06:14:51.563Z,100231.16
2023-01-12T06:17:19.424Z,100228.34
2023-01-12T06:19:47.369Z,100229.13
2023-01-12T06:22:15.210Z,100217.09
2023-01-12T06:24:43.117Z,100213.31
2023-01-12T06:27:12.616Z,100202.06
2023-01-12T06:29:40.452Z,100204.44
2023-01-12T06:32:08.654Z,100204.56
2023-01-12T06:34:36.802Z,100192.22
2023-01-12T06:37:05.147Z,100193.88
2023-01-12T06:39:33.033Z,100192.16
2023-01-12T06:42:18.898Z,100186.66
2023-01-12T06:44:48.953Z,100175.03
2023-01-12T06:47:16.995Z,100181.19
2023-01-12T06:49:45.001Z,100176.06
2023-01-12T06:52:13.059Z,100176.53
2023-01-12T06:54:41.214Z,100169.75
2023-01-12T06:57:09.104Z,100159.81
2023-01-12T06:59:38.909Z,100161.53
2023-01-12T07:02:11.092Z,100148.22
2023-01-12T07:04:39.209Z,100151.81
2023-01-12T07:07:09.564Z,100141.38
2023-01-12T07:09:38.187Z,100139.91
2023-01-12T07:12:06.676Z,100129.88
2023-01-12T07:14:34.923Z,100118.25
2023-01-12T07:17:03.696Z,100112.28
2023-01-12T07:19:32.940Z,100104.00
2023-01-12T07:22:01.118Z,100093.53
2023-01-12T07:24:29.084Z,100085.88
2023-01-12T07:26:58.621Z,100081.19
2023-01-12T07:29:26.519Z,100075.88
2023-01-12T07:31:55.142Z,100069.25
2023-01-12T07:34:23.326Z,100063.31
2023-01-12T07:36:52.845Z,100054.16
2023-01-12T07:39:21.269Z,100058.28
2023-01-12T07:42:07.389Z,100047.13
2023-01-12T07:44:37.776Z,100043.81
2023-01-12T07:47:05.852Z,100035.53
2023-01-12T07:49:33.742Z,100031.38
2023-01-12T07:52:03.153Z,100033.38
2023-01-12T07:54:33.751Z,100019.22
2023-01-12T07:57:01.672Z,100029.03
2023-01-12T07:59:30.903Z,100023.59
2023-01-12T08:01:59.944Z,100020.09
2023-01-12T08:04:27.993Z,100019.53
2023-01-12T08:06:56.029Z,100020.72
2023-01-12T08:09:25.699Z,100012.00
2023-01-12T08:11:56.519Z,99994.22
2023-01-12T08:14:29.130Z,99984.28
2023-01-12T08:17:01.678Z,99982.16
2023-01-12T08:19:37.230Z,99979.19
2023-01-12T08:22:09.244Z,99982.13
2023-01-12T08:24:44.948Z,99984.06
2023-01-12T08:27:13.206Z,99969.28
2023-01-12T08:29:46.235Z,99958.09
2023-01-12T08:32:18.000Z,99953.84
2023-01-12T08:34:50.637Z,99949.03
2023-01-12T08:37:22.812Z,99951.69
2023-01-12T08:39:54.117Z,99943.72
2023-01-12T08:42:25.137Z,99948.97
2023-01-12T08:44:54.296Z,99939.03
2023-01-12T08:47:27.116Z,99932.75
2023-01-12T08:49:55.311Z,99928.50
2023-01-12T08:52:23.200Z,99924.22
2023-01-12T08:54:52.723Z,99926.81
2023-01-12T08:57:20.753Z,99921.03
2023-01-12T08:59:48.758Z,99924.78
2023-01-12T09:02:17.186Z,99921.94
2023-01-12T09:04:45.683Z,99914.13
2023-01-12T09:07:14.174Z,99915.97
2023-01-12T09:09:42.235Z,99908.59
2023-01-12T09:12:11.645Z,99906.19
2023-01-12T09:14:39.685Z,99917.34
2023-01-12T09:17:08.422Z,99919.88
2023-01-12T09:19:36.462Z,99913.94
2023-01-12T09:22:04.420Z,99917.22
2023-01-12T09:24:32.470Z,99912.13
2023-01-12T09:27:01.658Z,99906.56
2023-01-12T09:29:30.945Z,99916.69
2023-01-12T09:31:59.010Z,99913.16
2023-01-12T09:34:27.045Z,99915.81
2023-01-12T09:36:56.707Z,99915.06
2023-01-12T09:39:28.665Z,99910.31
2023-01-12T09:42:18.095Z,99917.66
2023-01-12T09:45:07.889Z,99925.09
2023-01-12T09:47:40.194Z,99903.72
2023-01-12T09:50:11.857Z,99907.84
2023-01-12T09:52:45.747Z,99890.38
2023-01-12T09:55:18.125Z,99917.41
2023-01-12T09:58:16.614Z,99906.53
2023-01-12T10:00:50.984Z,99915.66
2023-01-12T10:03:29.402Z,99916.25
2023-01-12T10:06:00.468Z,99910.16
2023-01-12T10:08:37.284Z,99907.06
2023-01-12T10:11:16.433Z,99912.44
2023-01-12T10:14:10.067Z,99926.22
2023-01-12T10:16:46.929Z,99907.06
2023-01-12T10:19:23.650Z,99913.88
2023-01-12T10:21:53.525Z,99917.72
2023-01-12T10:24:23.801Z,99923.06
2023-01-12T10:26:57.128Z,99922.59
2023-01-12T10:29:25.409Z,99922.09
2023-01-12T10:31:54.693Z,99920.28
2023-01-12T10:34:22.680Z,99918.03
2023-01-12T10:36:55.742Z,99921.00
2023-01-12T10:39:31.955Z,99916.84
2023-01-12T10:42:31.306Z,99921.13
2023-01-12T10:45:14.474Z,99920.81
2023-01-12T10:47:45.183Z,99920.13
2023-01-12T10:50:22.497Z,99918.03
2023-01-12T10:52:54.877Z,99910.19
2023-01-12T10:55:24.754Z,99904.44
2023-01-12T10:57:54.260Z,99906.50
2023-01-12T11:00:26.206Z,99910.81
2023-01-12T11:02:56.491Z,99913.41
2023-01-12T11:05:31.951Z,99903.56
2023-01-12T11:08:00.437Z,99899.53
2023-01-12T11:10:31.864Z,99901.59
2023-01-12T11:13:03.628Z,99901.91
2023-01-12T11:15:35.727Z,99903.63
2023-01-12T11:18:29.807Z,99891.63
2023-01-12T11:21:03.101Z,99892.00
2023-01-12T11:23:38.870Z,99900.91
2023-01-12T11:26:18.554Z,99901.88
2023-01-12T11:28:50.033Z,99912.69
2023-01-12T11:31:22.407Z,99906.03
2023-01-12T11:33:58.813Z,99906.03
2023-01-12T11:36:30.384Z,99908.94
2023-01-12T11:39:04.321Z,99922.91
2023-01-12T11:41:39.416Z,99914.75
2023-01-12T11:44:16.441Z,99913.31
2023-01-12T11:46:51.879Z,99907.25
2023-01-12T11:49:28.316Z,99909.06
2023-01-12T11:51:59.352Z,99901.31
2023-01-12T11:54:29.502Z,99910.91
2023-01-12T11:57:12.596Z,99896.69
2023-01-12T11:59:49.806Z,99906.06
2023-01-12T12:02:33.069Z,99896.38
2023-01-12T12:05:16.251Z,99913.22
2023-01-12T12:07:58.859Z,99909.59
2023-01-12T12:10:34.952Z,99907.06
2023-01-12T12:13:20.269Z,99907.53
2023-01-12T12:15:57.037Z,99917.53
2023-01-12T12:18:37.137Z,99906.00
2023-01-12T12:21:18.688Z,99917.19
2023-01-12T12:24:00.207Z,99920.22
2023-01-12T12:26:31.996Z,99918.13
2023-01-12T12:29:26.094Z,99920.56
2023-01-12T12:32:03.457Z,99925.91
2023-01-12T12:35:18.951Z,99934.91
2023-01-12T12:37:58.018Z,99925.91
2023-01-12T12:40:57.254Z,99916.22
2023-01-12T12:43:48.808Z,99923.88
2023-01-12T12:46:24.243Z,99942.31
2023-01-12T12:49:01.795Z,99934.16
2023-01-12T12:51:32.676Z,99929.94
2023-01-12T12:54:06.690Z,99927.88
2023-01-12T12:56:36.745Z,99932.84
2023-01-12T12:59:05.499Z,99940.22
2023-01-12T13:01:42.540Z,99917.91
2023-01-12T13:04:12.737Z,99923.50
2023-01-12T13:06:47.572Z,99930.03
2023-01-12T13:09:38.477Z,99933.09
2023-01-12T13:12:33.390Z,99934.56
2023-01-12T13:15:29.377Z,99938.56
2023-01-12T13:17:57.426Z,99931.16
2023-01-12T13:20:38.650Z,99947.66
2023-01-12T13:23:46.987Z,99946.56
2023-01-12T13:26:42.015Z,99949.56
2023-01-12T13:29:52.301Z,99963.94
2023-01-12T13:32:41.721Z,99968.63
2023-01-12T13:35:55.859Z,99969.97
2023-01-12T13:38:38.619Z,99982.72
2023-01-12T13:41:38.846Z,99969.72
2023-01-12T13:44:10.360Z,99982.59
2023-01-12T13:46:44.501Z,99985.16
2023-01-12T13:49:34.785Z,99993.63
2023-01-12T13:52:05.821Z,99995.44
2023-01-12T13:54:34.907Z,99996.28
2023-01-12T13:57:10.789Z,100004.41
2023-01-12T13:59:40.007Z,100010.66
2023-01-12T14:02:19.105Z,100009.91
2023-01-12T14:05:05.422Z,100005.75
2023-01-12T14:08:00.051Z,100007.81
2023-01-12T14:10:39.099Z,100005.50
2023-01-12T14:13:38.807Z,100006.59
2023-01-12T14:16:30.147Z,100015.09
2023-01-12T14:18:58.187Z,100009.75
2023-01-12T14:21:30.116Z,100014.38
2023-01-12T14:24:15.963Z,100029.09
2023-01-12T14:26:44.344Z,100028.81
2023-01-12T14:29:12.846Z,100028.59
2023-01-12T14:31:45.413Z,100036.13
2023-01-12T14:34:28.252Z,100036.66
2023-01-12T14:36:56.829Z,100037.09
2023-01-12T14:39:28.959Z,100041.84
2023-01-12T14:42:15.243Z,100040.78
2023-01-12T14:45:08.085Z,100043.69
2023-01-12T14:47:37.866Z,100041.00
2023-01-12T14:50:18.375Z,100033.56
2023-01-12T14:52:47.877Z,100035.16
2023-01-12T14:55:17.942Z,100042.94
2023-01-12T14:57:50.144Z,100044.38
2023-01-12T15:00:22.608Z,100035.63
2023-01-12T15:02:53.452Z,100040.84
2023-01-12T15:05:25.432Z,100040.63
2023-01-12T15:07:59.197Z,100043.41
2023-01-12T15:10:30.625Z,100050.31
2023-01-12T15:13:00.526Z,100048.03
2023-01-12T15:15:51.113Z,100053.03
2023-01-12T15:18:38.275Z,100060.81
2023-01-12T15:21:35.807Z,100060.09
2023-01-12T15:24:21.414Z,100068.84
2023-01-12T15:27:01.922Z,100076.50
2023-01-12T15:29:33.650Z,100080.63
2023-01-12T15:32:01.856Z,100072.88
2023-01-12T15:34:31.475Z,100074.91
2023-01-12T15:36:59.694Z,100076.16
2023-01-12T15:39:27.675Z,100077.72
2023-01-12T15:42:13.868Z,100077.59
2023-01-12T15:44:41.789Z,100070.06
2023-01-12T15:47:12.800Z,100068.22
2023-01-12T15:49:42.392Z,100073.34
2023-01-12T15:52:14.185Z,100083.56
2023-01-12T15:54:43.195Z,100073.69
2023-01-12T15:57:13.213Z,100067.41
2023-01-12T15:59:41.764Z,100074.69
2023-01-12T16:02:25.979Z,100078.81
2023-01-12T16:04:56.337Z,100076.88
2023-01-12T16:07:24.688Z,100071.53
2023-01-12T16:09:52.643Z,100080.16
2023-01-12T16:12:20.519Z,100084.75
2023-01-12T16:14:48.611Z,100071.25
2023-01-12T16:17:17.851Z,100078.22
2023-01-12T16:19:45.760Z,100085.59
2023-01-12T16:22:21.229Z,100079.78
2023-01-12T16:24:50.229Z,100078.56
2023-01-12T16:27:19.102Z,100081.13
2023-01-12T16:29:47.696Z,100079.44
2023-01-12T16:32:16.317Z,100074.09
2023-01-12T16:34:45.805Z,100063.25
2023-01-12T16:37:16.593Z,100075.28
2023-01-12T16:39:44.734Z,100066.53
2023-01-12T16:42:13.248Z,100066.53
2023-01-12T16:44:41.643Z,100067.03
2023-01-12T16:47:13.000Z,100057.66
2023-01-12T16:49:41.052Z,100056.09
2023-01-12T16:52:10.886Z,100058.66
2023-01-12T16:54:43.025Z,100050.50
2023-01-12T16:57:11.178Z,100054.03
2023-01-12T16:59:39.097Z,100047.97
2023-01-12T17:02:08.212Z,100057.31
2023-01-12T17:04:37.684Z,100058.66
2023-01-12T17:07:06.884Z,100049.75
2023-01-12T17:09:35.868Z,100042.13
2023-01-12T17:12:06.167Z,100040.16
2023-01-12T17:14:34.806Z,100039.56
2023-01-12T17:17:04.643Z,100038.59
2023-01-12T17:19:34.654Z,100046.03
2023-01-12T17:22:03.012Z,100034.22
2023-01-12T17:24:32.583Z,100041.03
2023-01-12T17:27:01.077Z,100033.00
2023-01-12T17:29:30.397Z,100035.47
2023-01-12T17:32:04.035Z,100039.69
2023-01-12T17:34:36.435Z,100027.06
2023-01-12T17:37:08.270Z,100027.44
2023-01-12T17:39:39.649Z,100030.22
2023-01-12T17:42:25.182Z,100025.59
2023-01-12T17:44:54.406Z,100018.31
2023-01-12T17:47:22.361Z,100019.66
2023-01-12T17:49:50.355Z,100017.72
2023-01-12T17:52:18.457Z,100011.75
2023-01-12T17:54:46.542Z,99999.41
2023-01-12T17:57:15.915Z,99997.69
2023-01-12T17:59:43.955Z,100002.41
2023-01-12T18:02:15.203Z,99994.88
2023-01-12T18:04:43.531Z,99998.28
2023-01-12T18:07:11.466Z,99997.53
2023-01-12T18:09:39.558Z,99989.53
2023-01-12T18:12:07.912Z,99982.25
2023-01-12T18:14:35.815Z,99991.72
2023-01-12T18:17:03.725Z,99992.06
2023-01-12T18:19:33.481Z,99982.13
2023-01-12T18:22:05.912Z,99975.81
2023-01-12T18:24:34.358Z,99978.84
2023-01-12T18:27:02.795Z,99982.13
2023-01-12T18:29:30.730Z,99976.91
2023-01-12T18:31:58.889Z,99979.56
2023-01-12T18:34:26.812Z,99971.69
2023-01-12T18:36:56.242Z,99962.94
2023-01-12T18:39:24.190Z,99967.69
2023-01-12T18:42:09.483Z,99967.81
2023-01-12T18:44:38.060Z,99962.34
2023-01-12T18:47:23.773Z,99960.53
2023-01-12T18:49:51.881Z,99952.66
2023-01-12T18:52:53.118Z,99954.47
2023-01-12T18:55:20.968Z,99951.91
2023-01-12T18:57:48.940Z,99956.28
2023-01-12T19:00:18.147Z,99947.78
2023-01-12T19:02:47.264Z,99944.84
2023-01-12T19:05:22.961Z,99939.78
2023-01-12T19:08:04.612Z,99942.66
2023-01-12T19:10:34.244Z,99934.31
2023-01-12T19:13:19.538Z,99942.91
2023-01-12T19:16:05.065Z,99936.84
2023-01-12T19:18:36.540Z,99928.09
2023-01-12T19:21:28.881Z,99927.16
2023-01-12T19:24:15.902Z,99927.28
2023-01-12T19:27:01.170Z,99928.22
2023-01-12T19:29:29.288Z,99921.56
2023-01-12T19:31:57.177Z,99922.63
2023-01-12T19:34:25.830Z,99918.75
2023-01-12T19:36:53.792Z,99918.88
2023-01-12T19:39:34.375Z,99917.19
2023-01-12T19:42:19.570Z,99921.22
2023-01-12T19:44:47.503Z,99909.41
2023-01-12T19:47:15.427Z,99915.47
2023-01-12T19:49:45.516Z,99910.75
2023-01-12T19:52:13.444Z,99908.34
2023-01-12T19:54:42.674Z,99916.09
2023-01-12T19:57:10.678Z,99905.78
2023-01-12T19:59:38.544Z,99913.69
2023-01-12T20:02:08.858Z,99905.06
2023-01-12T20:04:37.657Z,99905.91
2023-01-12T20:07:05.578Z,99904.81
2023-01-12T20:09:34.057Z,99900.56
2023-01-12T20:12:03.565Z,99884.44
2023-01-12T20:14:32.054Z,99895.94
2023-01-12T20:16:59.962Z,99901.19
2023-01-12T20:19:30.154Z,99894.84
2023-01-12T20:21:58.028Z,99903.47
2023-01-12T20:24:26.220Z,99899.59
2023-01-12T20:26:54.837Z,99894.72
2023-01-12T20:29:24.420Z,99899.13
2023-01-12T20:31:52.950Z,99896.94
2023-01-12T20:34:21.577Z,99913.81
2023-01-12T20:36:51.143Z,99907.22
2023-01-12T20:39:19.681Z,99912.09
2023-01-12T20:41:50.262Z,99903.13
2023-01-12T20:44:20.191Z,99910.03
2023-01-12T20:46:49.864Z,99914.88
2023-01-12T20:49:19.210Z,99908.19
2023-01-12T20:51:48.097Z,99919.00
2023-01-12T20:54:17.106Z,99924.47
2023-01-12T20:56:45.354Z,99928.09
2023-01-12T20:59:14.247Z,99930.03
2023-01-12T21:01:42.268Z,99935.50
2023-01-12T21:04:11.627Z,99945.84
2023-01-12T21:06:43.582Z,99945.22
2023-01-12T21:09:11.514Z,99948.00
2023-01-12T21:11:41.894Z,99945.94
2023-01-12T21:14:10.075Z,99942.88
2023-01-12T21:16:38.096Z,99948.38
2023-01-12T21:19:07.650Z,99944.56
2023-01-12T21:21:37.155Z,99948.59
2023-01-12T21:24:05.419Z,99950.66
2023-01-12T21:26:33.527Z,99941.56
2023-01-12T21:29:01.872Z,99952.50
2023-01-12T21:31:29.983Z,99951.25
2023-01-12T21:33:57.797Z,99952.25
2023-01-12T21:36:25.780Z,99949.00
2023-01-12T21:38:55.422Z,99944.13
2023-01-12T21:41:24.881Z,99938.44
2023-01-12T21:43:52.975Z,99938.31
2023-01-12T21:46:22.374Z,99947.66
2023-01-12T21:48:50.192Z,99942.91
2023-01-12T21:51:18.683Z,99943.78
2023-01-12T21:53:46.557Z,99950.56
2023-01-12T21:56:15.789Z,99933.09
2023-01-12T21:58:43.679Z,99936.72
2023-01-12T22:01:14.353Z,99932.84
2023-01-12T22:03:42.696Z,99941.09
2023-01-12T22:06:12.789Z,99929.94
2023-01-12T22:08:42.695Z,99928.63
2023-01-12T22:11:12.944Z,99929.09
2023-01-12T22:13:45.458Z,99939.66
2023-01-12T22:16:15.400Z,99935.63
2023-01-12T22:18:46.983Z,99937.84
2023-01-12T22:21:15.757Z,99923.16
2023-01-12T22:23:44.329Z,99924.59
2023-01-12T22:26:14.484Z,99925.19
2023-01-12T22:28:49.386Z,99920.59
2023-01-12T22:31:19.609Z,99921.53
2023-01-12T22:33:57.628Z,99912.81
2023-01-12T22:36:25.845Z,99919.63
2023-01-12T22:38:53.733Z,99916.94
2023-01-12T22:41:22.656Z,99919.38
2023-01-12T22:43:53.213Z,99921.94
2023-01-12T22:46:23.103Z,99919.50
2023-01-12T22:48:51.586Z,99922.63
2023-01-12T22:51:20.871Z,99924.81
2023-01-12T22:53:49.276Z,99924.34
2023-01-12T22:56:17.459Z,99921.56
2023-01-12T22:58:47.627Z,99926.28
2023-01-12T23:01:17.900Z,99919.13
2023-01-12T23:03:47.195Z,99922.41
2023-01-12T23:06:18.151Z,99904.31
2023-01-12T23:08:46.591Z,99915.97
2023-01-12T23:11:16.605Z,99914.53
2023-01-12T23:13:46.373Z,99899.84
2023-01-12T23:16:17.872Z,99892.56
2023-01-12T23:18:47.817Z,99892.03
2023-01-12T23:21:18.121Z,99896.78
2023-01-12T23:23:48.129Z,99894.59
2023-01-12T23:26:18.697Z,99897.91
2023-01-12T23:28:48.698Z,99900.19
2023-01-12T23:31:20.060Z,99881.97
2023-01-12T23:33:48.705Z,99888.53
2023-01-12T23:36:19.011Z,99895.09
2023-01-12T23:38:47.117Z,99885.22
2023-01-12T23:41:18.204Z,99884.03
2023-01-12T23:43:46.837Z,99880.88
2023-01-12T23:46:17.037Z,99882.47
2023-01-12T23:48:46.384Z,99870.81
2023-01-12T23:51:14.233Z,99874.22
2023-01-12T23:53:42.619Z,99863.88
2023-01-12T23:56:13.380Z,99864.88
2023-01-12T23:58:41.847Z,99863.06
